Time;durP1;ratioP1;P1;durP2;ratioP2;P2;SDS_P1;SDS_P2;PMS_P1;PMS_P2;Temp;Humidity;BMP_temperature;BMP_pressure;BME280_temperature;BME280_humidity;BME280_pressure;Samples;Min_cycle;Max_cycle;Signal;HPM_P1;HPM_P2
2023/03/14 00:00:26;;;;;;;0.10;0.10;;;10.30;99.90;230.40;231737.00;;;;5027921;28;20206;-71
2023/03/14 00:02:54;;;;;;;0.10;0.10;;;10.20;99.90;230.40;231737.00;;;;5027461;28;20294;-71
2023/03/14 00:05:22;;;;;;;0.10;0.10;;;10.20;99.90;230.40;231737.00;;;;5028357;28;20195;-72
2023/03/14 00:07:51;;;;;;;0.10;0.10;;;10.20;99.90;230.40;231737.00;;;;5027454;28;20250;-71
2023/03/14 00:10:19;;;;;;;0.10;0.10;;;10.30;99.90;230.40;231737.00;;;;5017923;28;20208;-71
2023/03/14 00:12:47;;;;;;;0.10;0.10;;;10.30;99.90;230.40;231737.00;;;;5029910;28;20207;-71
2023/03/14 00:15:16;;;;;;;0.10;0.10;;;10.20;99.90;230.40;231737.00;;;;5022295;28;20218;-71
2023/03/14 00:17:45;;;;;;;0.10;0.10;;;10.20;99.90;230.40;231737.00;;;;5034070;28;20226;-71
2023/03/14 00:20:13;;;;;;;0.10;0.10;;;10.20;99.90;230.40;231737.00;;;;5021134;28;20206;-71
2023/03/14 00:22:42;;;;;;;0.10;0.10;;;10.20;99.90;230.40;231737.00;;;;5030580;28;20215;-71
2023/03/14 00:25:12;;;;;;;0.10;0.10;;;10.10;99.90;230.40;231737.00;;;;5018638;28;20690;-71
2023/03/14 00:27:40;;;;;;;0.10;0.10;;;10.10;99.90;230.40;231737.00;;;;5032601;28;20226;-71
2023/03/14 00:30:10;;;;;;;0.10;0.10;;;10.00;99.90;230.40;231737.00;;;;5021967;28;20253;-71
2023/03/14 00:32:39;;;;;;;0.10;0.10;;;10.00;99.90;230.40;231737.00;;;;5025326;28;20659;-72
2023/03/14 00:35:10;;;;;;;0.10;0.10;;;10.10;99.90;230.40;231737.00;;;;5026780;28;20237;-72
2023/03/14 00:37:38;;;;;;;0.10;0.10;;;10.10;99.90;230.40;231737.00;;;;5027211;28;20272;-72
2023/03/14 00:40:09;;;;;;;0.10;0.10;;;10.10;99.90;230.40;231737.00;;;;5028116;28;20199;-72
2023/03/14 00:42:37;;;;;;;0.10;0.10;;;10.10;99.90;230.40;231737.00;;;;5024269;28;20695;-72
2023/03/14 00:45:07;;;;;;;0.10;0.10;;;10.10;99.90;230.40;231737.00;;;;5023105;28;20202;-72
2023/03/14 00:47:35;;;;;;;0.10;0.10;;;10.10;99.90;230.40;231737.00;;;;5030568;28;20210;-72
2023/03/14 00:50:05;;;;;;;0.10;0.10;;;10.10;99.90;230.40;231737.00;;;;5028695;28;20689;-72
2023/03/14 00:52:33;;;;;;;0.10;0.10;;;10.20;99.90;230.40;231737.00;;;;5019944;28;20196;-72
2023/03/14 00:55:01;;;;;;;0.10;0.10;;;10.20;99.90;230.40;231737.00;;;;5024575;28;20219;-72
2023/03/14 00:57:29;;;;;;;0.10;0.10;;;10.20;99.90;230.40;231737.00;;;;5030089;28;20272;-72
2023/03/14 00:59:57;;;;;;;0.10;0.10;;;10.20;99.90;230.40;231737.00;;;;5026339;28;20290;-72
2023/03/14 01:02:25;;;;;;;0.10;0.10;;;10.20;99.90;230.40;231737.00;;;;5032678;28;20278;-72
2023/03/14 01:04:53;;;;;;;0.10;0.10;;;10.20;99.90;230.40;231737.00;;;;5025376;28;20824;-72
2023/03/14 01:07:24;;;;;;;0.10;0.10;;;10.20;99.90;230.40;231737.00;;;;5019441;28;20223;-72
2023/03/14 01:09:53;;;;;;;0.10;0.10;;;10.10;99.90;230.40;231737.00;;;;5023775;28;20602;-72
2023/03/14 01:12:21;;;;;;;0.10;0.10;;;10.10;99.90;230.40;231737.00;;;;5015198;28;20643;-72
2023/03/14 01:14:49;;;;;;;0.10;0.10;;;10.10;99.90;230.40;231737.00;;;;5012015;28;20195;-72
2023/03/14 01:17:17;;;;;;;0.10;0.10;;;10.10;99.90;230.40;231737.00;;;;5020954;28;20261;-72
2023/03/14 01:19:44;;;;;;;0.00;0.00;;;10.00;99.90;230.40;231737.00;;;;5024845;28;20200;-71
2023/03/14 01:22:12;;;;;;;0.10;0.10;;;10.00;99.90;230.40;231737.00;;;;5016726;28;20207;-72
2023/03/14 01:24:42;;;;;;;0.10;0.10;;;10.00;99.90;230.40;231737.00;;;;5028601;28;20261;-72
2023/03/14 01:27:10;;;;;;;0.10;0.10;;;10.00;99.90;230.40;231737.00;;;;5014134;28;20570;-71
2023/03/14 01:29:38;;;;;;;0.10;0.10;;;10.00;99.90;230.40;231737.00;;;;5025286;28;20231;-71
2023/03/14 01:32:06;;;;;;;0.10;0.10;;;10.00;99.90;230.40;231737.00;;;;5029476;28;20199;-71
2023/03/14 01:34:34;;;;;;;0.10;0.10;;;10.00;99.90;230.40;231737.00;;;;5019481;28;20238;-71
2023/03/14 01:37:02;;;;;;;0.10;0.10;;;10.00;99.90;230.40;231737.00;;;;5027973;28;20227;-71
2023/03/14 01:39:31;;;;;;;0.10;0.10;;;10.00;99.90;230.40;231737.00;;;;5040542;28;20245;-71
2023/03/14 01:42:01;;;;;;;0.10;0.10;;;10.00;99.90;230.40;231737.00;;;;5018953;28;20199;-71
2023/03/14 01:44:29;;;;;;;0.10;0.10;;;10.00;99.90;230.40;231737.00;;;;5030883;28;20265;-72
2023/03/14 01:46:57;;;;;;;0.10;0.10;;;10.00;99.90;230.40;231737.00;;;;5018401;28;20824;-72
2023/03/14 01:49:30;;;;;;;0.05;0.05;;;10.00;99.90;230.40;231737.00;;;;5021383;28;20195;-72
2023/03/14 01:52:06;;;;;;;0.10;0.10;;;10.00;99.90;230.40;231737.00;;;;5015415;28;20204;-71
2023/03/14 01:54:39;;;;;;;0.10;0.10;;;10.00;99.90;230.40;231737.00;;;;5028735;28;20252;-72
2023/03/14 01:57:16;;;;;;;0.10;0.10;;;10.00;99.90;230.40;231737.00;;;;5027171;28;20254;-72
2023/03/14 01:59:53;;;;;;;0.10;0.10;;;10.00;99.90;230.40;231737.00;;;;5013420;28;20205;-72
2023/03/14 02:02:22;;;;;;;0.10;0.10;;;10.00;99.90;230.40;231737.00;;;;5024229;28;20195;-72
2023/03/14 02:04:52;;;;;;;0.10;0.10;;;10.10;99.90;230.40;231737.00;;;;5015436;28;20642;-71
2023/03/14 02:07:33;;;;;;;0.10;0.10;;;10.10;99.90;230.40;231737.00;;;;5025749;28;20636;-72
2023/03/14 02:10:11;;;;;;;0.10;0.10;;;10.10;99.90;230.40;231737.00;;;;5014096;28;20210;-72
2023/03/14 02:12:41;;;;;;;0.00;0.00;;;10.10;99.90;230.40;231737.00;;;;5020899;28;20286;-71
2023/03/14 02:15:20;;;;;;;0.10;0.10;;;10.10;99.90;230.40;231737.00;;;;5023855;28;20201;-71
2023/03/14 02:18:02;;;;;;;0.10;0.10;;;10.10;99.90;230.40;231737.00;;;;5025947;28;20231;-71
2023/03/14 02:20:51;;;;;;;0.10;0.10;;;10.10;99.90;230.40;231737.00;;;;5020123;28;20207;-72
2023/03/14 02:23:30;;;;;;;0.10;0.10;;;10.10;99.90;230.40;231737.00;;;;5017491;28;20196;-72
2023/03/14 02:26:04;;;;;;;0.10;0.10;;;10.00;99.90;230.40;231737.00;;;;5028262;28;20265;-71
2023/03/14 02:28:33;;;;;;;0.10;0.10;;;10.00;99.90;230.40;231737.00;;;;5024204;28;20207;-72
2023/03/14 02:31:03;;;;;;;0.10;0.10;;;10.00;99.90;230.40;231737.00;;;;5022384;28;20211;-72
2023/03/14 02:33:34;;;;;;;0.10;0.10;;;10.00;99.90;230.40;231737.00;;;;5025291;28;20212;-72
2023/03/14 02:36:10;;;;;;;0.10;0.10;;;10.00;99.90;230.40;231737.00;;;;5028710;28;20218;-72
2023/03/14 02:38:47;;;;;;;0.10;0.10;;;10.00;99.90;230.40;231737.00;;;;5022965;28;20203;-72
2023/03/14 02:41:16;;;;;;;0.10;0.10;;;10.00;99.90;230.40;231737.00;;;;5025157;28;20226;-73
2023/03/14 02:43:52;;;;;;;0.10;0.10;;;10.00;99.90;230.40;231737.00;;;;5018889;28;20215;-72
2023/03/14 02:46:22;;;;;;;0.10;0.10;;;10.00;99.90;230.40;231737.00;;;;5020597;28;20303;-72
2023/03/14 02:48:57;;;;;;;0.10;0.10;;;10.00;99.90;230.40;231737.00;;;;5025311;28;20293;-72
2023/03/14 02:51:27;;;;;;;0.10;0.10;;;10.00;99.90;230.40;231737.00;;;;5029999;28;20662;-72
2023/03/14 02:53:55;;;;;;;0.10;0.10;;;10.00;99.90;230.40;231737.00;;;;5023711;28;20721;-71
2023/03/14 02:56:25;;;;;;;0.10;0.10;;;10.00;99.90;230.40;231737.00;;;;5021134;28;20697;-72
2023/03/14 02:58:54;;;;;;;0.10;0.10;;;10.00;99.90;230.40;231737.00;;;;5020248;28;20257;-71
2023/03/14 03:01:41;;;;;;;0.10;0.10;;;10.00;99.90;230.40;231737.00;;;;5023186;28;20231;-72
2023/03/14 03:04:09;;;;;;;0.10;0.10;;;10.00;99.90;230.40;231737.00;;;;5022567;28;20199;-72
2023/03/14 03:06:37;;;;;;;0.10;0.10;;;10.10;99.90;230.40;231737.00;;;;5028246;28;20263;-72
2023/03/14 03:09:05;;;;;;;0.10;0.10;;;10.00;99.90;230.40;231737.00;;;;5030812;28;20738;-71
2023/03/14 03:11:33;;;;;;;0.10;0.10;;;10.10;99.90;230.40;231737.00;;;;5021116;28;20686;-72
2023/03/14 03:14:02;;;;;;;0.10;0.10;;;10.10;99.90;230.40;231737.00;;;;5028146;28;20211;-72
2023/03/14 03:16:30;;;;;;;0.10;0.10;;;10.10;99.90;230.40;231737.00;;;;5030091;28;20741;-72
2023/03/14 03:19:00;;;;;;;0.10;0.10;;;10.10;99.90;230.40;231737.00;;;;5015798;28;20239;-72
2023/03/14 03:21:28;;;;;;;0.10;0.10;;;10.10;99.90;230.40;231737.00;;;;5024529;28;20195;-72
2023/03/14 03:23:56;;;;;;;0.10;0.10;;;10.10;99.90;230.40;231737.00;;;;5028620;28;20226;-73
2023/03/14 03:26:24;;;;;;;0.10;0.10;;;10.10;99.90;230.40;231737.00;;;;5028043;28;20626;-72
2023/03/14 03:28:52;;;;;;;0.10;0.10;;;10.10;99.90;230.40;231737.00;;;;5027497;28;20203;-72
2023/03/14 03:31:22;;;;;;;0.10;0.10;;;10.10;99.90;230.40;231737.00;;;;5033289;28;20615;-73
2023/03/14 03:33:50;;;;;;;0.10;0.10;;;10.10;99.90;230.40;231737.00;;;;5022745;28;20207;-73
2023/03/14 03:36:23;;;;;;;0.10;0.10;;;10.10;99.90;230.40;231737.00;;;;5029551;28;20261;-72
2023/03/14 03:38:51;;;;;;;0.10;0.10;;;10.10;99.90;230.40;231737.00;;;;5032877;28;20202;-73
2023/03/14 03:41:19;;;;;;;0.10;0.10;;;10.10;99.90;230.40;231737.00;;;;5027729;28;20223;-73
2023/03/14 03:43:50;;;;;;;0.10;0.10;;;10.10;99.90;230.40;231737.00;;;;5053954;28;20199;-73
2023/03/14 03:46:18;;;;;;;0.10;0.10;;;10.10;99.90;230.40;231737.00;;;;5026541;28;20315;-73
2023/03/14 03:48:48;;;;;;;0.10;0.10;;;10.10;99.90;230.40;231737.00;;;;5025111;28;20542;-73
2023/03/14 03:51:17;;;;;;;0.10;0.10;;;10.10;99.90;230.40;231737.00;;;;5032887;28;20195;-73
2023/03/14 03:53:45;;;;;;;0.10;0.10;;;10.10;99.90;230.40;231737.00;;;;5027933;28;20199;-73
2023/03/14 03:56:17;;;;;;;0.10;0.10;;;10.10;99.90;230.40;231737.00;;;;5013670;28;20632;-73
2023/03/14 03:58:45;;;;;;;0.10;0.10;;;10.10;99.90;230.40;231737.00;;;;5030492;28;20546;-73
2023/03/14 04:01:13;;;;;;;0.10;0.10;;;10.00;99.90;230.40;231737.00;;;;5030098;28;20662;-73
2023/03/14 04:03:43;;;;;;;0.10;0.10;;;10.00;99.90;230.40;231737.00;;;;5017668;28;20214;-72
2023/03/14 04:06:14;;;;;;;0.10;0.10;;;10.10;99.90;230.40;231737.00;;;;5018590;28;20613;-72
2023/03/14 04:08:45;;;;;;;0.10;0.10;;;10.00;99.90;230.40;231737.00;;;;5028597;28;20199;-72
2023/03/14 04:11:31;;;;;;;0.10;0.10;;;10.10;99.90;230.40;231737.00;;;;5028824;28;20222;-72
2023/03/14 04:14:04;;;;;;;0.10;0.10;;;10.10;99.90;230.40;231737.00;;;;5021592;28;20278;-72
2023/03/14 04:16:32;;;;;;;0.10;0.10;;;10.10;99.90;230.40;231737.00;;;;5032473;28;20222;-73
2023/03/14 04:19:10;;;;;;;0.10;0.10;;;10.10;99.90;230.40;231737.00;;;;5023253;28;20302;-73
2023/03/14 04:21:44;;;;;;;0.10;0.10;;;10.10;99.90;230.40;231737.00;;;;5024957;28;20195;-73
2023/03/14 04:24:13;;;;;;;0.10;0.10;;;10.10;99.90;230.40;231737.00;;;;5021204;28;20221;-72
2023/03/14 04:26:43;;;;;;;0.10;0.10;;;10.10;99.90;230.40;231737.00;;;;5016246;28;20242;-72
2023/03/14 04:29:12;;;;;;;0.10;0.10;;;10.10;99.90;230.40;231737.00;;;;5031782;28;20225;-72
2023/03/14 04:31:42;;;;;;;0.10;0.10;;;10.10;99.90;230.40;231737.00;;;;5026180;28;20265;-72
2023/03/14 04:34:10;;;;;;;0.10;0.10;;;10.10;99.90;230.40;231737.00;;;;5032952;28;20194;-72
2023/03/14 04:36:49;;;;;;;0.00;0.00;;;10.10;99.90;230.40;231737.00;;;;5022832;28;20646;-72
2023/03/14 04:39:21;;;;;;;0.10;0.10;;;10.10;99.90;230.40;231737.00;;;;5023454;28;20191;-72
2023/03/14 04:41:58;;;;;;;0.10;0.10;;;10.10;99.90;230.40;231737.00;;;;5022515;28;20206;-72
2023/03/14 04:44:26;;;;;;;0.10;0.10;;;10.10;99.90;230.40;231737.00;;;;5021982;28;20210;-72
2023/03/14 04:46:55;;;;;;;0.00;0.00;;;10.10;99.90;230.40;231737.00;;;;5018533;28;20223;-72
2023/03/14 04:49:24;;;;;;;0.10;0.10;;;10.10;99.90;230.40;231737.00;;;;5018215;28;20199;-73
2023/03/14 04:51:53;;;;;;;0.10;0.10;;;10.10;99.90;230.40;231737.00;;;;5027125;28;20195;-73
2023/03/14 04:54:23;;;;;;;0.10;0.10;;;10.10;99.90;230.40;231737.00;;;;5024184;28;20196;-73
2023/03/14 04:56:55;;;;;;;0.10;0.10;;;10.10;99.90;230.40;231737.00;;;;5017882;28;20227;-73
2023/03/14 04:59:24;;;;;;;0.10;0.10;;;10.10;99.90;230.40;231737.00;;;;5014874;28;20196;-73
2023/03/14 05:01:55;;;;;;;0.10;0.10;;;10.10;99.90;230.40;231737.00;;;;5023249;28;20287;-73
2023/03/14 05:04:36;;;;;;;0.10;0.10;;;10.20;99.90;230.40;231737.00;;;;5026806;28;20222;-72
2023/03/14 05:07:17;;;;;;;0.10;0.10;;;10.20;99.90;230.40;231737.00;;;;5021997;28;20666;-73
2023/03/14 05:09:53;;;;;;;0.10;0.10;;;10.20;99.90;230.40;231737.00;;;;5028942;28;20194;-73
2023/03/14 05:12:27;;;;;;;0.10;0.10;;;10.20;99.90;230.40;231737.00;;;;5024888;28;20196;-73
2023/03/14 05:15:08;;;;;;;0.00;0.00;;;10.10;99.90;230.40;231737.00;;;;5024663;28;20195;-73
2023/03/14 05:17:57;;;;;;;0.10;0.10;;;10.10;99.90;230.40;231737.00;;;;5018455;28;20232;-73
2023/03/14 05:20:51;;;;;;;0.10;0.10;;;10.20;99.90;230.40;231737.00;;;;5024606;28;20276;-74
2023/03/14 05:23:48;;;;;;;0.10;0.10;;;10.20;99.90;230.40;231737.00;;;;5029046;28;20302;-74
2023/03/14 05:26:32;;;;;;;0.10;0.10;;;10.20;99.90;230.40;231737.00;;;;5024762;28;20701;-74
2023/03/14 05:29:15;;;;;;;0.10;0.10;;;10.20;99.90;230.40;231737.00;;;;5023047;28;20231;-74
2023/03/14 05:31:58;;;;;;;0.10;0.10;;;10.10;99.90;230.40;231737.00;;;;5030591;28;20195;-74
2023/03/14 05:34:36;;;;;;;0.10;0.10;;;10.20;99.90;230.40;231737.00;;;;5024567;28;20310;-74
2023/03/14 05:37:30;;;;;;;0.10;0.10;;;10.20;99.90;230.40;231737.00;;;;5027682;28;20231;-74
2023/03/14 05:40:32;;;;;;;0.10;0.10;;;10.20;99.90;230.40;231737.00;;;;5020089;28;20243;-74
2023/03/14 05:43:16;;;;;;;0.00;0.00;;;10.10;99.90;230.40;231737.00;;;;5012268;28;20565;-74
2023/03/14 05:45:54;;;;;;;0.10;0.10;;;10.10;99.90;230.40;231737.00;;;;5018320;28;20290;-74
2023/03/14 05:48:28;;;;;;;0.10;0.10;;;10.10;99.90;230.40;231737.00;;;;5021868;28;20215;-74
2023/03/14 05:51:08;;;;;;;0.10;0.10;;;10.10;99.90;230.40;231737.00;;;;5024026;28;20236;-74
2023/03/14 05:53:45;;;;;;;0.10;0.10;;;10.10;99.90;230.40;231737.00;;;;5016967;28;20218;-74
2023/03/14 05:56:35;;;;;;;0.00;0.00;;;10.10;99.90;230.40;231737.00;;;;5019900;28;20315;-75
2023/03/14 05:59:21;;;;;;;0.10;0.10;;;10.10;99.90;230.40;231737.00;;;;5024325;28;20713;-75
2023/03/14 06:02:18;;;;;;;0.10;0.10;;;10.10;99.90;230.40;231737.00;;;;5021270;28;20203;-75
2023/03/14 06:04:56;;;;;;;0.10;0.10;;;10.10;99.90;230.40;231737.00;;;;5016842;28;20196;-75
2023/03/14 06:07:24;;;;;;;0.10;0.10;;;10.10;99.90;230.40;231737.00;;;;5019234;28;20322;-75
2023/03/14 06:09:52;;;;;;;0.05;0.05;;;10.10;99.90;230.40;231737.00;;;;5034375;28;20203;-74
2023/03/14 06:12:22;;;;;;;0.10;0.10;;;10.10;99.90;230.40;231737.00;;;;5027942;28;20191;-75
2023/03/14 06:14:51;;;;;;;0.10;0.10;;;10.20;99.90;230.40;231737.00;;;;5024955;28;20205;-74
2023/03/14 06:17:19;;;;;;;0.10;0.10;;;10.10;99.90;230.40;231737.00;;;;5015223;28;22563;-74
2023/03/14 06:19:56;;;;;;;0.10;0.10;;;10.10;99.90;230.40;231737.00;;;;5019459;28;20302;-74
2023/03/14 06:22:24;;;;;;;0.10;0.10;;;10.20;99.90;230.40;231737.00;;;;5030925;28;20249;-74
2023/03/14 06:24:53;;;;;;;0.10;0.10;;;10.20;99.90;230.40;231737.00;;;;5019045;28;20199;-74
2023/03/14 06:27:24;;;;;;;0.10;0.10;;;10.20;99.90;230.40;231737.00;;;;5015257;28;20266;-74
2023/03/14 06:29:55;;;;;;;0.10;0.10;;;10.20;99.90;230.40;231737.00;;;;5039000;28;20294;-74
2023/03/14 06:32:25;;;;;;;0.10;0.10;;;10.20;99.90;230.40;231737.00;;;;5026014;28;20619;-74
2023/03/14 06:35:00;;;;;;;0.10;0.10;;;10.20;99.90;230.40;231737.00;;;;5028224;28;20204;-74
2023/03/14 06:37:30;;;;;;;0.10;0.10;;;10.30;99.90;230.40;231737.00;;;;5022331;28;20313;-74
2023/03/14 06:39:58;;;;;;;0.10;0.10;;;10.30;99.90;230.40;231737.00;;;;5030801;28;20226;-74
2023/03/14 06:42:48;;;;;;;0.10;0.10;;;10.20;99.90;230.40;231737.00;;;;5034062;28;20199;-74
2023/03/14 06:45:17;;;;;;;0.10;0.10;;;10.20;99.90;230.40;231737.00;;;;5029650;28;20260;-74
2023/03/14 06:47:46;;;;;;;0.10;0.10;;;10.30;99.90;230.40;231737.00;;;;5027539;28;20642;-74
2023/03/14 06:50:15;;;;;;;0.10;0.10;;;10.30;99.90;230.40;231737.00;;;;5021185;28;20192;-74
2023/03/14 06:52:47;;;;;;;0.10;0.10;;;10.30;99.90;230.40;231737.00;;;;5015052;28;20694;-74
2023/03/14 06:55:20;;;;;;;0.10;0.10;;;10.30;99.90;230.40;231737.00;;;;5018188;28;20200;-74
2023/03/14 06:57:51;;;;;;;0.10;0.10;;;10.30;99.90;230.40;231737.00;;;;5047874;23;20238;-71
2023/03/14 07:00:20;;;;;;;0.10;0.10;;;10.30;99.90;230.40;231737.00;;;;5023199;28;20199;-71
2023/03/14 07:02:49;;;;;;;0.10;0.10;;;10.30;99.90;230.40;231737.00;;;;5026867;28;20203;-71
2023/03/14 07:05:32;;;;;;;0.10;0.10;;;10.30;99.90;230.40;231737.00;;;;5024554;28;20238;-71
2023/03/14 07:08:00;;;;;;;0.10;0.10;;;10.30;99.90;230.40;231737.00;;;;5022622;28;20212;-71
2023/03/14 07:10:29;;;;;;;0.10;0.10;;;10.30;99.90;230.40;231737.00;;;;5021414;28;20226;-70
2023/03/14 07:12:58;;;;;;;0.08;0.08;;;10.30;99.90;230.40;231737.00;;;;5013957;28;20265;-71
2023/03/14 07:15:30;;;;;;;0.10;0.10;;;10.30;99.90;230.40;231737.00;;;;5021359;28;20286;-71
2023/03/14 07:18:03;;;;;;;0.10;0.10;;;10.30;99.90;230.40;231737.00;;;;5026531;28;20215;-71
2023/03/14 07:20:32;;;;;;;0.10;0.10;;;10.30;99.90;230.40;231737.00;;;;5017842;28;20302;-70
2023/03/14 07:23:02;;;;;;;0.10;0.10;;;10.40;99.90;230.40;231737.00;;;;5019517;28;20261;-71
2023/03/14 07:25:53;;;;;;;0.03;0.03;;;10.40;99.90;230.40;231737.00;;;;5019387;28;20226;-72
2023/03/14 07:28:26;;;;;;;0.10;0.10;;;10.30;99.90;230.40;231737.00;;;;5017895;28;20192;-72
2023/03/14 07:31:04;;;;;;;0.10;0.10;;;10.30;99.90;230.40;231737.00;;;;5018772;28;20203;-72
2023/03/14 07:33:35;;;;;;;0.10;0.10;;;10.30;99.90;230.40;231737.00;;;;5018147;28;20235;-71
2023/03/14 07:36:04;;;;;;;0.10;0.10;;;10.40;99.90;230.40;231737.00;;;;5028196;28;20210;-73
2023/03/14 07:38:32;;;;;;;0.10;0.10;;;10.40;99.90;230.40;231737.00;;;;5017566;28;20249;-72
2023/03/14 07:41:24;;;;;;;0.10;0.10;;;10.40;99.90;230.40;231737.00;;;;5017250;28;20199;-72
2023/03/14 07:44:19;;;;;;;0.10;0.10;;;10.30;99.90;230.40;231737.00;;;;5013502;28;20578;-72
2023/03/14 07:46:47;;;;;;;0.10;0.10;;;10.40;99.90;230.40;231737.00;;;;5023044;28;20223;-72
2023/03/14 07:49:15;;;;;;;0.10;0.10;;;10.40;99.90;230.40;231737.00;;;;5020239;28;20230;-72
2023/03/14 07:51:43;;;;;;;0.10;0.10;;;10.40;99.90;230.40;231737.00;;;;5021411;28;20720;-72
2023/03/14 07:54:11;;;;;;;0.10;0.10;;;10.40;99.90;230.40;231737.00;;;;5021742;28;20203;-72
2023/03/14 07:56:39;;;;;;;0.10;0.10;;;10.40;99.90;230.40;231737.00;;;;5024951;28;20744;-73
2023/03/14 07:59:07;;;;;;;0.10;0.10;;;10.40;99.90;230.40;231737.00;;;;5047765;28;20639;-71
2023/03/14 08:01:39;;;;;;;0.10;0.10;;;10.50;99.90;230.40;231737.00;;;;5038595;28;20206;-72
2023/03/14 08:04:07;;;;;;;0.10;0.10;;;10.50;99.90;230.40;231737.00;;;;5039942;28;20261;-72
2023/03/14 08:06:36;;;;;;;0.10;0.10;;;10.50;99.90;230.40;231737.00;;;;5030418;28;20701;-72
2023/03/14 08:09:05;;;;;;;0.10;0.10;;;10.50;99.90;230.40;231737.00;;;;5044100;28;20273;-74
2023/03/14 08:11:33;;;;;;;0.10;0.10;;;10.50;99.90;230.40;231737.00;;;;5042604;28;20203;-71
2023/03/14 08:14:01;;;;;;;0.10;0.10;;;10.50;99.90;230.40;231737.00;;;;5053398;28;20263;-73
2023/03/14 08:16:29;;;;;;;0.10;0.10;;;10.50;99.90;230.40;231737.00;;;;5047942;28;20218;-72
2023/03/14 08:18:58;;;;;;;0.10;0.10;;;10.50;99.90;230.40;231737.00;;;;5043701;28;20219;-72
2023/03/14 08:21:26;;;;;;;0.10;0.10;;;10.50;99.90;230.40;231737.00;;;;5031174;28;20187;-73
2023/03/14 08:23:54;;;;;;;0.10;0.10;;;10.50;99.90;230.40;231737.00;;;;5043268;28;20249;-72
2023/03/14 08:26:22;;;;;;;0.10;0.10;;;10.60;99.90;230.40;231737.00;;;;5040590;28;20751;-72
2023/03/14 08:28:50;;;;;;;0.10;0.10;;;10.60;99.90;230.40;231737.00;;;;5042457;28;20199;-72
2023/03/14 08:31:18;;;;;;;0.10;0.10;;;10.60;99.90;230.40;231737.00;;;;5045455;28;20718;-72
2023/03/14 08:33:46;;;;;;;0.10;0.10;;;10.60;99.90;230.40;231737.00;;;;5038898;28;20199;-72
2023/03/14 08:36:16;;;;;;;0.10;0.10;;;10.60;99.90;230.40;231737.00;;;;5053202;28;20222;-70
2023/03/14 08:38:44;;;;;;;0.10;0.10;;;10.60;99.90;230.40;231737.00;;;;5038410;28;20230;-71
2023/03/14 08:41:12;;;;;;;0.10;0.10;;;10.60;99.90;230.40;231737.00;;;;5044154;28;20215;-72
2023/03/14 08:43:40;;;;;;;0.10;0.10;;;10.60;99.90;230.40;231737.00;;;;5041754;28;20207;-72
2023/03/14 08:46:08;;;;;;;0.10;0.10;;;10.60;99.90;230.40;231737.00;;;;5044463;28;20206;-72
2023/03/14 08:48:36;;;;;;;0.10;0.10;;;10.60;99.90;230.40;231737.00;;;;5053326;28;20540;-72
2023/03/14 08:51:10;;;;;;;0.10;0.10;;;10.70;99.90;230.40;231737.00;;;;5038823;28;20662;-73
2023/03/14 08:53:42;;;;;;;0.10;0.10;;;10.70;99.90;230.40;231737.00;;;;5045562;28;20224;-72
2023/03/14 08:56:10;;;;;;;0.10;0.10;;;10.70;99.90;230.40;231737.00;;;;5028432;28;20256;-72
2023/03/14 08:58:42;;;;;;;0.10;0.10;;;10.80;99.90;230.40;231737.00;;;;5054224;28;20248;-72
2023/03/14 09:01:11;;;;;;;0.10;0.10;;;10.80;99.90;230.40;231737.00;;;;5057421;28;20218;-73
2023/03/14 09:03:39;;;;;;;0.10;0.10;;;10.70;99.90;230.40;231737.00;;;;5058849;28;20217;-72
2023/03/14 09:06:10;;;;;;;0.10;0.10;;;10.70;99.90;230.40;231737.00;;;;5054897;28;20206;-72
2023/03/14 09:08:39;;;;;;;0.10;0.10;;;10.70;99.90;230.40;231737.00;;;;5044670;28;20256;-72
2023/03/14 09:11:09;;;;;;;0.10;0.10;;;10.70;99.90;230.40;231737.00;;;;5053344;28;20244;-72
2023/03/14 09:13:37;;;;;;;0.10;0.10;;;10.60;99.90;230.40;231737.00;;;;5044670;28;20198;-72
2023/03/14 09:16:07;;;;;;;0.10;0.10;;;10.70;99.90;230.40;231737.00;;;;5041816;28;20194;-72
2023/03/14 09:18:35;;;;;;;0.10;0.10;;;10.60;99.90;230.40;231737.00;;;;5040430;28;20209;-73
2023/03/14 09:21:03;;;;;;;0.10;0.10;;;10.60;99.90;230.40;231737.00;;;;5043340;28;20292;-72
2023/03/14 09:23:32;;;;;;;0.10;0.10;;;10.60;99.90;230.40;231737.00;;;;5043082;28;20250;-72
2023/03/14 09:26:02;;;;;;;0.10;0.10;;;10.70;99.90;230.40;231737.00;;;;5041484;28;20268;-73
2023/03/14 09:28:30;;;;;;;0.10;0.10;;;10.70;99.90;230.40;231737.00;;;;5041505;28;20203;-72
2023/03/14 09:30:58;;;;;;;0.10;0.10;;;10.70;99.90;230.40;231737.00;;;;5042637;28;20211;-73
2023/03/14 09:33:26;;;;;;;0.10;0.10;;;10.70;99.90;230.40;231737.00;;;;5052478;28;20661;-73
2023/03/14 09:35:54;;;;;;;0.10;0.10;;;10.80;99.90;230.40;231737.00;;;;5043971;28;20261;-73
2023/03/14 09:38:23;;;;;;;0.00;0.00;;;10.80;99.90;230.40;231737.00;;;;5027344;28;20202;-70
2023/03/14 09:40:51;;;;;;;0.10;0.10;;;10.80;99.90;230.40;231737.00;;;;5039231;28;20223;-73
2023/03/14 09:43:23;;;;;;;0.10;0.10;;;10.80;99.90;230.40;231737.00;;;;5039657;28;20207;-73
2023/03/14 09:45:52;;;;;;;0.10;0.10;;;10.80;99.90;230.40;231737.00;;;;5040941;28;20260;-72
2023/03/14 09:48:23;;;;;;;0.10;0.10;;;10.80;99.90;230.40;231737.00;;;;5048127;28;20199;-71
2023/03/14 09:50:55;;;;;;;0.10;0.10;;;10.80;99.90;230.40;231737.00;;;;5046237;28;20209;-72
2023/03/14 09:53:28;;;;;;;0.10;0.10;;;10.90;99.90;230.40;231737.00;;;;5052153;28;20194;-73
2023/03/14 09:55:59;;;;;;;0.10;0.10;;;11.00;99.90;230.40;231737.00;;;;5043588;28;20207;-73
2023/03/14 09:58:30;;;;;;;0.05;0.05;;;11.10;99.90;230.40;231737.00;;;;5042783;28;20203;-72
2023/03/14 10:01:00;;;;;;;0.10;0.10;;;11.20;99.90;230.40;231737.00;;;;5041839;28;20233;-73
2023/03/14 10:03:34;;;;;;;0.10;0.10;;;11.20;99.90;230.40;231737.00;;;;5043974;28;20549;-72
2023/03/14 10:06:10;;;;;;;0.10;0.10;;;11.40;99.90;230.40;231737.00;;;;5035935;28;20207;-73
2023/03/14 10:08:41;;;;;;;0.10;0.10;;;11.40;99.90;230.40;231737.00;;;;5043585;28;20198;-72
2023/03/14 10:11:15;;;;;;;0.10;0.10;;;11.30;99.90;230.40;231737.00;;;;5040657;28;20226;-72
2023/03/14 10:14:08;;;;;;;0.10;0.10;;;11.30;99.90;230.40;231737.00;;;;5048606;28;20226;-72
2023/03/14 10:16:41;;;;;;;0.10;0.10;;;11.40;99.90;230.40;231737.00;;;;5039680;28;20219;-73
2023/03/14 10:19:13;;;;;;;0.10;0.10;;;11.30;99.90;230.40;231737.00;;;;5047082;28;20735;-72
2023/03/14 10:21:44;;;;;;;0.00;0.00;;;11.30;99.90;230.40;231737.00;;;;5043841;28;20214;-72
2023/03/14 10:24:22;;;;;;;0.03;0.03;;;11.30;99.90;230.40;231737.00;;;;5042244;28;20233;-72
2023/03/14 10:26:54;;;;;;;0.00;0.00;;;11.30;99.90;230.40;231737.00;;;;5039895;28;20222;-72
2023/03/14 10:29:23;;;;;;;0.03;0.03;;;11.20;99.90;230.40;231737.00;;;;5044009;28;20209;-72
2023/03/14 10:31:54;;;;;;;0.10;0.10;;;11.10;99.90;230.40;231737.00;;;;5044573;28;20202;-72
2023/03/14 10:34:27;;;;;;;0.10;0.10;;;11.00;99.90;230.40;231737.00;;;;5039321;28;20209;-72
2023/03/14 10:36:59;;;;;;;0.10;0.10;;;11.00;99.90;230.40;231737.00;;;;5042293;28;20225;-72
2023/03/14 10:39:41;;;;;;;0.10;0.10;;;11.10;99.90;230.40;231737.00;;;;5037931;28;20240;-72
2023/03/14 10:42:20;;;;;;;0.10;0.10;;;11.10;99.90;230.40;231737.00;;;;5040249;28;20230;-73
2023/03/14 10:44:56;;;;;;;0.00;0.00;;;11.10;99.90;230.40;231737.00;;;;5039451;28;20256;-72
2023/03/14 10:47:28;;;;;;;0.10;0.10;;;11.10;99.90;230.40;231737.00;;;;5039904;28;20284;-72
2023/03/14 10:49:57;;;;;;;0.10;0.10;;;11.00;99.90;230.40;231737.00;;;;5044104;28;20229;-72
2023/03/14 10:52:27;;;;;;;0.10;0.10;;;11.00;99.90;230.40;231737.00;;;;5040692;28;20201;-72
2023/03/14 10:55:16;;;;;;;0.10;0.10;;;11.00;99.90;230.40;231737.00;;;;5020696;28;20209;-72
2023/03/14 10:57:44;;;;;;;0.10;0.10;;;11.00;99.90;230.40;231737.00;;;;5039192;28;20281;-72
2023/03/14 11:00:19;;;;;;;0.10;0.10;;;11.00;99.90;230.40;231737.00;;;;5036958;28;20191;-71